X  Zatvori METAR podaci zračne luke     EDDK Cologne Bonn Airport
Temperatura
7°C Temperatura
2°C Točka rosišta
71% Vlaga



Vjetar
6 MPS
10 KM/S
3 M/S
5 Čvorovi



130°
JI
Trenutna situacija

Vedro Vedro
Tlak zraka 1019.98 (hPa) - 30.12 (inHg)
Vidljivost 6 (milje) - 9.7 (km)
Zračna luka
Kôd zračne luke EDDK

Lokacija: Cologne Bonn Airport
Udaljenost: 56 (mi)

Metar:
EDDK 281920Z AUTO 13005KT CAVOK 07/02 Q1020 NOSIG

Vrijeme: 2024-02-28 20:20 CET